Flight Track Log - Related Links

Times and Time Zones

All times are in EDT time to prevent confusion due to time zone crossing. See the EJA922 flight status page for this flight to view local times or setup timezone preferences in your user account.

Time Position Orientation Groundspeed Altitude Reporting Facility
EDT Latitude Longitude Course Direction KTS MPH feet Rate Location/Type
Mon 02:39:53 PM 44.9500 -92.9833 99° East 210 242 3,700  Level Minneapolis TRACON
Mon 02:40:39 PM 44.9744 -92.9392 52° Northeast 229 264 5,700 3,333 Climbing Minneapolis Center
Mon 02:41:41 PM 45.0317 -92.8603 44° Northeast 287 330 9,700 3,871 Climbing Minneapolis Center
Mon 02:42:43 PM 45.1039 -92.7925 34° Northeast 311 358 13,700 3,968 Climbing Minneapolis Center
Mon 02:43:45 PM 45.1983 -92.7017 34° Northeast 342 394 17,900 2,581 Climbing Minneapolis Center
Mon 02:45:00 PM 44.8258 -92.0741 99° East  Level Estimated
Mon 02:45:00 PM 45.1728 -92.4958 100° East  Level Estimated
Mon 02:45:49 PM 45.2794 -92.4564 100° East 368 423 21,700  Level Minneapolis Center
Mon 02:46:51 PM 45.3017 -92.3006 78° East 396 456 22,200 484 Climbing Minneapolis Center
Mon 02:47:53 PM 45.3203 -92.1622 79° East 431 496 22,700 912 Climbing Minneapolis Center
Mon 02:48:56 PM 45.3489 -91.9481 79° East 457 526 24,100 1,344 Climbing Minneapolis Center
Mon 02:49:58 PM 45.3747 -91.7308 80° East 464 534 25,500 1,113 Climbing Minneapolis Center
Mon 02:51:00 PM 45.3989 -91.5447 79° East 476 548 26,400 919 Climbing Minneapolis Center
Mon 02:52:02 PM 45.4231 -91.3569 80° East 482 555 27,400 927 Climbing Minneapolis Center
Mon 02:53:03 PM 45.4458 -91.1853 79° East 490 564 28,300 1,059 Climbing Minneapolis Center
Mon 02:54:18 PM 45.4833 -90.9158 79° East 497 572 29,800 926 Climbing Minneapolis Center
Mon 02:55:32 PM 45.5094 -90.7194 79° East 503 579 30,600 1,095 Climbing Minneapolis Center
Mon 02:56:35 PM 45.5403 -90.4819 79° East 510 587 32,300 1,584 Climbing Minneapolis Center
Mon 02:57:37 PM 45.5242 -90.2856 97° East 503 579 33,900 2,081 Climbing Minneapolis Center
Mon 02:58:39 PM 45.4964 -90.0564 100° East 494 568 36,600 2,371 Climbing Minneapolis Center
Mon 02:59:41 PM 45.4722 -89.8753 101° East 474 545 38,800 1,935 Climbing Minneapolis Center
Mon 03:00:43 PM 45.4500 -89.6972 100° East 464 534 40,600 1,065 Climbing Minneapolis Center
Mon 03:01:45 PM 45.4258 -89.5186 101° East 463 533 41,000 194 Climbing Minneapolis Center
Mon 03:02:47 PM 45.4011 -89.3275 100° East 489 563 41,000  Level Minneapolis Center
Mon 03:03:49 PM 45.3694 -89.0906 101° East 511 588 41,000  Level Minneapolis Center
Mon 03:04:51 PM 45.3433 -88.8894 100° East 517 595 41,000  Level Minneapolis Center
Mon 03:05:53 PM 45.3158 -88.6908 101° East 518 596 41,000  Level Minneapolis Center
Mon 03:06:55 PM 45.2889 -88.4950 101° East 513 590 41,000  Level Minneapolis Center
Mon 03:07:57 PM 45.2606 -88.2986 102° East 509 586 41,000  Level Minneapolis Center
Mon 03:08:59 PM 45.2328 -88.1006 101° East 512 589 41,000  Level Minneapolis Center
Mon 03:10:01 PM 45.1983 -87.8628 102° East 513 590 41,000  Level Minneapolis Center
Mon 03:11:03 PM 45.1694 -87.6672 102° East 512 589 41,000  Level Minneapolis Center
Mon 03:12:05 PM 45.1400 -87.4703 102° East 511 588 41,000  Level Minneapolis Center
Mon 03:13:19 PM 45.1108 -87.2767 102° East 508 585 41,000  Level Minneapolis Center
Mon 03:14:21 PM 45.0764 -87.0522 102° East 493 567 41,000  Level Minneapolis Center
Mon 03:15:23 PM 45.0481 -86.8689 102° East 483 556 41,000  Level Minneapolis Center
Mon 03:16:25 PM 45.0167 -86.6681 102° East 481 554 41,000  Level Minneapolis Center
Mon 03:17:27 PM 44.9864 -86.4783 103° East 490 564 41,000  Level Minneapolis Center
Mon 03:18:40 PM 44.9556 -86.2886 103° East 494 568 41,000  Level Minneapolis Center
Mon 03:19:43 PM 44.9183 -86.0594 103° East 498 573 41,000  Level Minneapolis Center
Mon 03:20:45 PM 44.8808 -85.8289 103° East 501 577 41,000  Level Minneapolis Center
Mon 03:21:47 PM 44.8500 -85.6386 103° East 505 581 41,000  Level Minneapolis Center
Mon 03:22:48 PM 44.8181 -85.4461 103° East 504 580 41,000  Level Minneapolis Center
Mon 03:23:50 PM 44.7850 -85.2567 104° East 501 577 41,000  Level Minneapolis Center
Mon 03:24:52 PM 44.7528 -85.0675 103° East 498 573 41,000  Level Minneapolis Center
Mon 03:25:54 PM 44.7211 -84.8817 103° East 492 566 41,000  Level Minneapolis Center
Mon 03:26:56 PM 44.6811 -84.6572 104° East 493 567 41,000  Level Minneapolis Center
Mon 03:27:58 PM 44.6478 -84.4708 104° East 494 568 41,000  Level Minneapolis Center
Mon 03:29:12 PM 44.6150 -84.2853 104° East 492 566 41,000  Level Minneapolis Center
Mon 03:30:14 PM 44.5742 -84.0608 104° East 495 570 41,000  Level Minneapolis Center
Mon 03:31:16 PM 44.5400 -83.8750 104° East 494 568 41,000  Level Minneapolis Center
Mon 03:32:18 PM 44.5058 -83.6894 104° East 494 568 41,000  Level Minneapolis Center
Mon 03:33:20 PM 44.4644 -83.4697 105° East 489 563 41,000  Level Minneapolis Center
Mon 03:34:22 PM 44.4306 -83.2881 105° East 486 559 41,000  Level Minneapolis Center
Mon 03:35:23 PM 44.3958 -83.1067 105° East 484 557 41,000  Level Minneapolis Center
Mon 03:36:10 PM 44.3500 -82.9500 112° Southeast 480 552 41,000  Level Toronto Center
Mon 03:37:10 PM 44.3167 -82.7833 106° East 480 552 41,000  Level Toronto Center
Mon 03:38:10 PM 44.2833 -82.5833 103° East 480 552 41,000  Level Toronto Center
Mon 03:39:10 PM 44.2500 -82.4000 104° East 490 564 41,000  Level Toronto Center
Mon 03:40:10 PM 44.2000 -82.2167 111° Southeast 480 552 41,000  Level Toronto Center
Mon 03:41:10 PM 44.1667 -82.0500 106° East 480 552 41,000  Level Toronto Center
Mon 03:42:10 PM 44.1333 -81.8667 104° East 480 552 41,000  Level Toronto Center
Mon 03:43:10 PM 44.1000 -81.6833 104° East 480 552 41,000  Level Toronto Center
Mon 03:44:10 PM 44.0667 -81.5167 106° East 480 552 41,000  Level Toronto Center
Mon 03:45:10 PM 44.0167 -81.3333 111° Southeast 480 552 41,000  Level Toronto Center
Mon 03:46:10 PM 43.9833 -81.1667 105° East 480 552 41,000  Level Toronto Center
Mon 03:47:10 PM 43.9333 -80.9833 111° Southeast 480 552 41,000  Level Toronto Center
Mon 03:48:10 PM 43.9167 -80.8167 98° East 470 541 41,000  Level Toronto Center
Mon 03:49:10 PM 43.8833 -80.6333 104° East 470 541 41,000  Level Toronto Center
Mon 03:50:10 PM 43.8333 -80.4667 113° Southeast 470 541 41,000  Level Toronto Center
Mon 03:51:10 PM 43.8000 -80.2833 104° East 470 541 41,000  Level Toronto Center
Mon 03:52:10 PM 43.7667 -80.1000 104° East 470 541 41,000  Level Toronto Center
Mon 03:53:10 PM 43.7167 -79.9333 112° Southeast 470 541 41,000  Level Toronto Center
Mon 03:54:10 PM 43.6833 -79.7500 104° East 480 552 41,000  Level Toronto Center
Mon 03:55:10 PM 43.6500 -79.5833 105° East 480 552 41,000  Level Toronto Center
Mon 03:56:10 PM 43.6333 -79.4000 97° East 490 564 41,000  Level Toronto Center
Mon 03:57:10 PM 43.6167 -79.2167 97° East 470 541 41,000  Level Toronto Center
Mon 03:58:10 PM 43.6000 -79.0333 97° East 470 541 41,000  Level Toronto Center
Mon 03:59:10 PM 43.6000 -78.8500 90° East 480 552 41,000  Level Toronto Center
Mon 04:00:10 PM 43.5500 -78.6833 112° Southeast 470 541 41,000  Level Toronto Center
Mon 04:01:10 PM 43.4833 -78.5333 121° Southeast 470 541 41,000  Level Toronto Center
Mon 04:02:10 PM 43.4000 -78.3667 124° Southeast 470 541 41,000  Level Toronto Center
Mon 04:03:10 PM 43.3500 -78.2167 115° Southeast 470 541 41,000  Level Toronto Center
Mon 04:04:10 PM 43.2833 -78.0500 119° Southeast 470 541 41,000 -150 Level Toronto Center
Mon 04:05:10 PM 43.2167 -77.9000 121° Southeast 470 541 40,700 -716 Descending Toronto Center
Mon 04:05:59 PM 43.1750 -77.8047 121° Southeast 468 539 39,700 -1,431 Descending Cleveland Center
Mon 04:06:59 PM 43.1086 -77.6428 119° Southeast 473 544 38,100 -1,450 Descending Cleveland Center
Mon 04:07:59 PM 43.0519 -77.4750 115° Southeast 478 550 36,800 -1,150 Descending Cleveland Center
Mon 04:08:59 PM 42.9931 -77.3047 115° Southeast 490 564 35,800 -1,050 Descending Cleveland Center
Mon 04:09:59 PM 42.9381 -77.1317 113° Southeast 490 564 34,700 -1,200 Descending Cleveland Center
Mon 04:10:59 PM 42.8786 -76.9619 115° Southeast 490 564 33,400 -816 Descending Cleveland Center
Mon 04:12:04 PM 42.8233 -76.8003 115° Southeast 493 567 33,000 -192 Descending Boston Center
Mon 04:13:04 PM 42.7672 -76.6264 114° Southeast 493 567 33,000 -50 Level Boston Center
Mon 04:14:04 PM 42.7069 -76.4500 115° Southeast 503 579 32,900 -950 Descending Boston Center
Mon 04:15:04 PM 42.6442 -76.2708 115° Southeast 509 586 31,100 -2,050 Descending Boston Center
Mon 04:16:04 PM 42.5775 -76.0861 116° Southeast 509 586 28,800 -1,550 Descending Boston Center
Mon 04:17:04 PM 42.5297 -75.9425 114° Southeast 466 536 28,000 -950 Descending Boston Center
Mon 04:18:04 PM 42.4819 -75.8044 115° Southeast 421 484 26,900 -1,200 Descending Boston Center
Mon 04:19:04 PM 42.4297 -75.6639 117° Southeast 410 472 25,600 -1,750 Descending Boston Center
Mon 04:20:04 PM 42.3794 -75.5208 115° Southeast 410 472 23,400 -1,300 Descending Boston Center
Mon 04:21:04 PM 42.3289 -75.3778 116° Southeast 410 472 23,000 -750 Descending Boston Center
Mon 04:22:04 PM 42.2883 -75.2522 114° Southeast 410 472 21,900 -1,591 Descending Boston Center
Mon 04:23:16 PM 42.2217 -75.0811 118° Southeast 405 466 19,500 -1,773 Descending Boston Center
Mon 04:24:16 PM 42.1747 -74.9503 116° Southeast 399 459 18,000 -750 Descending Boston Center
Mon 04:25:16 PM 42.1269 -74.8364 119° Southeast 394 453 18,000 -100 Level Boston Center
Mon 04:26:16 PM 42.0733 -74.7139 120° Southeast 384 442 17,800 -600 Descending Boston Center
Mon 04:27:16 PM 42.0217 -74.5864 119° Southeast 384 442 16,800 -1,200 Descending Boston Center
Mon 04:28:16 PM 41.9656 -74.4533 120° Southeast 379 436 15,400 -1,800 Descending Boston Center
Mon 04:29:16 PM 41.9197 -74.3458 120° Southeast 374 430 13,200 -2,400 Descending Boston Center
Mon 04:30:16 PM 41.8675 -74.2214 119° Southeast 362 417 10,600 -2,100 Descending Boston Center
Mon 04:31:16 PM 41.8231 -74.1311 123° Southeast 350 403 9,000 -1,650 Descending Boston Center
Mon 04:32:16 PM 41.7681 -74.0461 131° Southeast 311 358 7,300 -1,500 Descending Boston Center
Mon 04:33:16 PM 41.6853 -74.0022 158° South 288 331 6,000 -650 Descending Boston Center
Mon 04:34:16 PM 41.6128 -73.9672 160° South 298 343 6,000  Level Boston Center
Mon 04:35:21 PM 41.5167 -73.9167 159° South 287 330 6,000  Level New York TRACON
Mon 04:37:00 PM 41.3386 -73.8000 180° South  Level FlightAware Approximate
Mon 04:44:00 PM 41.0667 -73.7000 246° West  Level FlightAware Approximate
Mon 04:45:00 PM 41.0669 -73.7076 246° West  Level Estimated
Mon 04:46:00 PM 41.0667 -73.7000 246° West  Level FlightAware Approximate
Mon 04:47:00 PM 41.0669 -73.7076 246° West  Level Estimated
Mon 04:48:00 PM 41.0667 -73.7000 246° West  Level FlightAware Approximate
Mon 04:49:00 PM 41.0669 -73.7076 246° West  Level Estimated
Mon 04:50:00 PM 41.0669 -73.7076 323° Northwest  Level Estimated
Mon 04:51:00 PM 41.0667 -73.7000 323° Northwest  Level FlightAware Approximate
Mon 04:52:00 PM 41.0669 -73.7076 323° Northwest  Level Estimated
Mon 04:53:00 PM 41.0667 -73.7000 323° Northwest  Level FlightAware Approximate
Mon 04:54:00 PM 41.0669 -73.7076 323° Northwest  Level Estimated
Mon 04:55:00 PM 41.0667 -73.7000 323° Northwest  Level FlightAware Approximate

Login

Don't have an account? Register now (free) for customized features, flight alerts, and more!